Time;durP1;ratioP1;P1;durP2;ratioP2;P2;SDS_P1;SDS_P2;PMS_P1;PMS_P2;Temp;Humidity;BMP_temperature;BMP_pressure;BME280_temperature;BME280_humidity;BME280_pressure;Samples;Min_cycle;Max_cycle;Signal;HPM_P1;HPM_P2
2020/12/20 00:01:53;;;;;;;41.90;19.10;;;7.30;99.90;;;;;;5013599;28;20037;-78
2020/12/20 00:04:19;;;;;;;64.88;31.15;;;7.30;99.90;;;;;;5014103;28;20037;-78
2020/12/20 00:06:46;;;;;;;50.67;25.42;;;7.30;99.90;;;;;;5013677;28;20379;-78
2020/12/20 00:09:18;;;;;;;18.55;11.38;;;7.20;99.90;;;;;;5013915;28;20041;-78
2020/12/20 00:11:47;;;;;;;19.92;12.35;;;7.20;99.90;;;;;;5025455;28;20026;-78
2020/12/20 00:14:30;;;;;;;9.27;6.18;;;7.20;99.90;;;;;;5014105;28;20060;-78
2020/12/20 00:16:59;;;;;;;15.38;10.00;;;7.20;99.90;;;;;;5014278;28;20486;-78
2020/12/20 00:19:26;;;;;;;49.53;31.65;;;7.30;99.90;;;;;;5012734;28;20030;-78
2020/12/20 00:22:02;;;;;;;29.77;19.30;;;7.20;99.90;;;;;;5013318;28;20480;-78
2020/12/20 00:24:28;;;;;;;14.18;9.82;;;7.20;99.90;;;;;;5013345;28;20049;-78
2020/12/20 00:26:56;;;;;;;9.77;6.55;;;7.20;99.90;;;;;;5013150;28;20034;-78
2020/12/20 00:29:23;;;;;;;8.95;6.55;;;7.20;99.90;;;;;;5013331;28;20034;-78
2020/12/20 00:31:50;;;;;;;12.85;7.38;;;7.20;99.90;;;;;;5013416;28;20026;-78
2020/12/20 00:34:16;;;;;;;12.65;6.88;;;7.10;99.90;;;;;;5013078;28;20464;-78
2020/12/20 00:36:47;;;;;;;12.65;8.50;;;7.10;99.90;;;;;;5013199;28;20033;-78
2020/12/20 00:39:14;;;;;;;12.90;9.55;;;7.10;99.90;;;;;;5013388;28;20037;-78
2020/12/20 00:41:41;;;;;;;11.32;7.78;;;7.10;99.90;;;;;;5012711;28;20041;-77
2020/12/20 00:44:07;;;;;;;11.50;6.40;;;7.10;99.90;;;;;;5012924;28;20049;-78
2020/12/20 00:46:35;;;;;;;7.20;5.80;;;7.10;99.90;;;;;;5011916;28;20053;-79
2020/12/20 00:49:03;;;;;;;8.77;6.25;;;7.10;99.90;;;;;;5013192;28;20034;-79
2020/12/20 00:51:31;;;;;;;10.30;5.88;;;7.10;99.90;;;;;;5012558;28;20033;-79
2020/12/20 00:53:58;;;;;;;7.72;6.00;;;7.10;99.90;;;;;;5012325;28;20056;-79
2020/12/20 00:56:25;;;;;;;8.02;5.32;;;7.00;99.90;;;;;;5012589;28;20064;-79
2020/12/20 00:58:51;;;;;;;6.80;4.72;;;6.90;99.90;;;;;;5013063;28;20030;-79
2020/12/20 01:01:18;;;;;;;8.40;5.57;;;6.90;99.90;;;;;;5012898;28;20044;-80
2020/12/20 01:03:45;;;;;;;10.68;5.72;;;6.90;99.90;;;;;;5011685;28;20507;-80
2020/12/20 01:06:19;;;;;;;7.40;5.40;;;6.80;99.90;;;;;;5012002;28;20053;-80
2020/12/20 01:08:50;;;;;;;8.98;5.68;;;6.70;99.90;;;;;;5011604;28;20042;-79
2020/12/20 01:11:18;;;;;;;7.18;5.25;;;6.80;99.90;;;;;;5012960;28;20041;-79
2020/12/20 01:13:46;;;;;;;7.30;5.35;;;6.70;99.90;;;;;;5011074;28;20483;-80
2020/12/20 01:16:17;;;;;;;10.98;5.57;;;6.70;99.90;;;;;;5011534;28;20348;-80
2020/12/20 01:18:45;;;;;;;11.73;7.53;;;6.70;99.90;;;;;;5011409;28;20042;-79
2020/12/20 01:21:16;;;;;;;11.35;7.50;;;6.70;99.90;;;;;;5012537;28;20050;-80
2020/12/20 01:23:45;;;;;;;12.60;8.00;;;6.70;99.90;;;;;;5010958;28;20049;-80
2020/12/20 01:26:11;;;;;;;14.13;8.02;;;6.70;99.90;;;;;;5011658;28;20522;-79
2020/12/20 01:28:38;;;;;;;13.02;7.60;;;6.70;99.90;;;;;;5012261;28;20033;-79
2020/12/20 01:31:06;;;;;;;13.32;8.32;;;6.60;99.90;;;;;;5011549;28;20424;-80
2020/12/20 01:33:52;;;;;;;9.48;7.50;;;6.60;99.90;;;;;;5011553;28;20046;-79
2020/12/20 01:36:18;;;;;;;11.63;7.65;;;6.60;99.90;;;;;;5011417;28;20053;-79
2020/12/20 01:38:52;;;;;;;14.13;8.63;;;6.60;99.90;;;;;;5011774;28;20387;-79
2020/12/20 01:41:19;;;;;;;12.18;7.78;;;6.60;99.90;;;;;;5011319;28;20049;-79
2020/12/20 01:43:51;;;;;;;12.80;8.45;;;6.60;99.90;;;;;;5012080;28;20026;-79
2020/12/20 01:46:27;;;;;;;11.27;8.63;;;6.60;99.90;;;;;;5023763;28;20049;-79
2020/12/20 01:48:53;;;;;;;12.35;8.23;;;6.50;99.90;;;;;;5026853;28;20052;-80
2020/12/20 01:51:20;;;;;;;11.90;9.77;;;6.50;99.90;;;;;;5012320;28;20383;-79
2020/12/20 01:53:57;;;;;;;14.20;9.50;;;6.50;99.90;;;;;;5011408;28;20041;-79
2020/12/20 01:56:24;;;;;;;13.52;9.65;;;6.50;99.90;;;;;;5011373;28;20467;-79
2020/12/20 01:58:50;;;;;;;14.85;9.73;;;6.50;99.90;;;;;;5010832;28;20497;-78
2020/12/20 02:01:26;;;;;;;11.98;9.48;;;6.50;99.90;;;;;;5027403;28;20037;-79
2020/12/20 02:04:05;;;;;;;12.80;8.85;;;6.50;99.90;;;;;;5011283;28;20476;-79
2020/12/20 02:06:38;;;;;;;13.93;9.55;;;6.40;99.90;;;;;;5010783;28;20489;-79
2020/12/20 02:09:05;;;;;;;12.88;9.52;;;6.50;99.90;;;;;;5012143;28;20059;-79
2020/12/20 02:11:32;;;;;;;13.60;9.73;;;6.40;99.90;;;;;;5011912;28;20038;-79
2020/12/20 02:14:03;;;;;;;;;;;6.40;99.90;;;;;;5015201;28;20410;-79
2020/12/20 02:16:48;;;;;;;14.80;7.88;;;6.30;99.90;;;;;;5015665;28;19916;-79
2020/12/20 02:19:18;;;;;;;13.70;9.68;;;6.40;99.90;;;;;;5015254;28;20387;-79
2020/12/20 02:21:44;;;;;;;14.07;10.13;;;6.40;99.90;;;;;;5014245;28;20054;-79
2020/12/20 02:24:17;;;;;;;13.45;9.63;;;6.40;99.90;;;;;;5017701;28;20034;-79
2020/12/20 02:26:50;;;;;;;13.30;9.63;;;6.30;99.90;;;;;;5029662;28;20041;-79
2020/12/20 02:29:18;;;;;;;13.60;10.05;;;6.30;99.90;;;;;;5014494;28;20372;-79
2020/12/20 02:31:45;;;;;;;12.02;8.70;;;6.30;99.90;;;;;;5013839;28;20495;-79
2020/12/20 02:34:13;;;;;;;13.57;9.23;;;6.30;99.90;;;;;;4999447;28;20041;-80
2020/12/20 02:36:44;;;;;;;13.57;9.73;;;6.30;99.90;;;;;;5015370;28;20036;-79
2020/12/20 02:39:15;;;;;;;12.25;9.02;;;6.30;99.90;;;;;;5030251;28;20069;-79
2020/12/20 02:42:10;;;;;;;12.20;8.35;;;6.30;99.90;;;;;;5012702;28;20050;-79
2020/12/20 02:44:43;;;;;;;12.02;8.82;;;6.30;99.90;;;;;;5013837;28;20115;-80
2020/12/20 02:47:10;;;;;;;14.43;8.38;;;6.20;99.90;;;;;;5014463;28;20045;-79
2020/12/20 02:49:37;;;;;;;13.93;9.18;;;6.20;99.90;;;;;;5023799;28;20042;-79
2020/12/20 02:52:13;;;;;;;13.75;10.25;;;6.30;99.90;;;;;;5030280;28;20042;-79
2020/12/20 02:54:39;;;;;;;13.52;9.52;;;6.20;99.90;;;;;;5013738;28;20042;-79
2020/12/20 02:57:12;;;;;;;13.15;9.93;;;6.20;99.90;;;;;;5014181;28;20368;-79
2020/12/20 02:59:52;;;;;;;13.27;9.57;;;6.20;99.90;;;;;;5014621;28;20048;-79
2020/12/20 03:02:20;;;;;;;13.05;9.93;;;6.20;99.90;;;;;;5014355;28;20061;-79
2020/12/20 03:04:49;;;;;;;13.73;10.05;;;6.20;99.90;;;;;;5013855;28;20046;-79
2020/12/20 03:07:17;;;;;;;13.48;9.85;;;6.20;99.90;;;;;;5015773;28;20030;-79
2020/12/20 03:09:44;;;;;;;12.95;9.63;;;6.20;99.90;;;;;;5013422;28;20053;-80
2020/12/20 03:12:10;;;;;;;15.73;10.88;;;6.20;99.90;;;;;;5014319;28;20045;-79
2020/12/20 03:14:37;;;;;;;12.63;9.95;;;6.20;99.90;;;;;;5013443;28;20050;-79
2020/12/20 03:17:03;;;;;;;14.75;10.43;;;6.20;99.90;;;;;;5014606;28;20054;-79
2020/12/20 03:19:29;;;;;;;16.00;10.80;;;6.20;99.90;;;;;;5012309;28;20041;-78
2020/12/20 03:21:58;;;;;;;15.80;10.80;;;6.10;99.90;;;;;;5013601;28;20038;-79
2020/12/20 03:24:43;;;;;;;13.55;9.65;;;6.10;99.90;;;;;;5013072;28;20053;-79
2020/12/20 03:27:19;;;;;;;14.52;10.23;;;6.00;99.90;;;;;;5027130;28;20065;-79
2020/12/20 03:30:16;;;;;;;13.93;9.43;;;6.00;99.90;;;;;;5013656;28;20053;-79
2020/12/20 03:33:15;;;;;;;14.05;9.85;;;6.00;99.90;;;;;;4997404;28;20069;-79
2020/12/20 03:36:04;;;;;;;11.45;8.82;;;6.00;99.90;;;;;;5006297;28;20046;-79
2020/12/20 03:38:30;;;;;;;13.13;10.05;;;6.00;99.90;;;;;;5013294;28;20057;-78
2020/12/20 03:40:56;;;;;;;12.25;9.93;;;6.00;99.90;;;;;;5012759;28;20356;-79
2020/12/20 03:43:23;;;;;;;13.77;9.85;;;6.00;99.90;;;;;;5014506;28;20026;-79
2020/12/20 03:45:54;;;;;;;14.73;11.27;;;6.00;99.90;;;;;;5013212;28;20168;-80
2020/12/20 03:48:28;;;;;;;17.48;11.30;;;6.00;99.90;;;;;;5025157;28;20392;-79
2020/12/20 03:50:55;;;;;;;16.83;10.85;;;6.00;99.90;;;;;;5012391;28;20050;-79
2020/12/20 03:53:21;;;;;;;15.82;11.10;;;6.00;99.90;;;;;;5012264;28;20360;-79
2020/12/20 03:56:07;;;;;;;13.40;9.80;;;6.00;99.90;;;;;;5013122;28;20053;-79
2020/12/20 03:58:36;;;;;;;17.70;11.60;;;6.10;99.90;;;;;;5019065;28;20049;-79
2020/12/20 04:01:03;;;;;;;16.75;10.95;;;6.00;99.90;;;;;;5012747;28;20042;-80
2020/12/20 04:03:32;;;;;;;15.68;11.57;;;6.00;99.90;;;;;;5011895;28;20048;-79
2020/12/20 04:06:00;;;;;;;16.30;11.68;;;6.00;99.90;;;;;;5012812;28;20041;-79
2020/12/20 04:08:26;;;;;;;14.27;11.32;;;6.10;99.90;;;;;;5013916;28;20045;-80
2020/12/20 04:11:20;;;;;;;14.10;10.55;;;6.10;99.90;;;;;;5012963;28;20044;-80
2020/12/20 04:13:47;;;;;;;15.45;11.70;;;6.10;99.90;;;;;;5012195;28;20399;-79
2020/12/20 04:16:14;;;;;;;15.63;11.60;;;6.10;99.90;;;;;;5012495;28;20056;-79
2020/12/20 04:18:40;;;;;;;14.23;10.57;;;6.10;99.90;;;;;;5012100;28;20482;-78
2020/12/20 04:21:06;;;;;;;14.85;11.82;;;6.10;99.90;;;;;;5011785;28;20050;-78
2020/12/20 04:23:34;;;;;;;15.27;10.52;;;6.00;99.90;;;;;;5011940;28;20352;-78
2020/12/20 04:26:10;;;;;;;15.98;11.23;;;6.00;99.90;;;;;;5012038;28;20045;-78
2020/12/20 04:28:55;;;;;;;15.95;11.27;;;6.00;99.90;;;;;;5013761;28;20049;-78
2020/12/20 04:31:31;;;;;;;15.00;11.52;;;5.90;99.90;;;;;;4996733;28;20053;-78
2020/12/20 04:33:58;;;;;;;16.73;11.57;;;5.90;99.90;;;;;;5027833;28;20125;-78
2020/12/20 04:36:26;;;;;;;13.90;10.70;;;5.80;99.90;;;;;;5011381;28;20046;-78
2020/12/20 04:38:57;;;;;;;15.82;11.20;;;5.70;99.90;;;;;;5012187;28;20451;-77
2020/12/20 04:41:25;;;;;;;15.90;11.32;;;5.80;99.90;;;;;;5012308;28;20041;-77
2020/12/20 04:43:57;;;;;;;16.83;12.15;;;5.70;99.90;;;;;;5025797;28;20045;-77
2020/12/20 04:46:26;;;;;;;17.30;12.60;;;5.70;99.90;;;;;;5011896;28;20069;-77
2020/12/20 04:49:05;;;;;;;15.57;11.48;;;5.70;99.90;;;;;;5011987;28;20049;-77
2020/12/20 04:51:35;;;;;;;20.23;14.23;;;5.70;99.90;;;;;;5017835;28;20049;-78
2020/12/20 04:54:02;;;;;;;19.27;13.32;;;5.80;99.90;;;;;;5011746;28;20463;-78
2020/12/20 04:56:36;;;;;;;18.13;12.52;;;5.70;99.90;;;;;;5011095;28;20052;-78
2020/12/20 04:59:15;;;;;;;15.65;12.05;;;5.70;99.90;;;;;;5011812;28;20395;-77
2020/12/20 05:01:55;;;;;;;17.05;11.43;;;5.70;99.90;;;;;;5012898;28;20046;-78
2020/12/20 05:04:21;;;;;;;15.65;11.52;;;5.70;99.90;;;;;;5013106;28;20026;-78
2020/12/20 05:06:48;;;;;;;22.58;12.98;;;5.70;99.90;;;;;;5011192;28;20042;-78
2020/12/20 05:09:27;;;;;;;15.18;11.43;;;5.80;99.90;;;;;;5011040;28;20415;-78
2020/12/20 05:11:59;;;;;;;16.70;11.05;;;5.80;99.90;;;;;;5011160;28;20049;-78
2020/12/20 05:14:35;;;;;;;16.15;12.43;;;5.80;99.90;;;;;;5011531;28;20042;-78
2020/12/20 05:17:17;;;;;;;15.43;10.88;;;5.80;99.90;;;;;;5011712;28;20041;-78
2020/12/20 05:19:54;;;;;;;21.02;11.93;;;5.70;99.90;;;;;;5017914;28;20046;-78
2020/12/20 05:22:22;;;;;;;20.13;12.35;;;5.80;99.90;;;;;;5028000;28;20037;-78
2020/12/20 05:25:13;;;;;;;17.50;11.98;;;5.70;99.90;;;;;;5012897;28;20379;-78
2020/12/20 05:27:40;;;;;;;16.90;12.10;;;5.70;99.90;;;;;;5010560;28;20045;-78
2020/12/20 05:30:16;;;;;;;18.52;11.65;;;5.80;99.90;;;;;;5011141;28;20048;-78
2020/12/20 05:33:03;;;;;;;15.15;11.77;;;5.80;99.90;;;;;;4996709;28;20041;-79
2020/12/20 05:35:30;;;;;;;19.00;12.63;;;5.80;99.90;;;;;;5010976;28;20049;-78
2020/12/20 05:37:56;;;;;;;21.95;12.90;;;5.80;99.90;;;;;;5011746;28;20049;-78
2020/12/20 05:40:28;;;;;;;20.80;12.70;;;5.80;99.90;;;;;;5011668;28;20038;-78
2020/12/20 05:43:03;;;;;;;20.65;12.55;;;5.80;99.90;;;;;;5010431;28;20376;-78
2020/12/20 05:45:36;;;;;;;19.45;12.38;;;5.80;99.90;;;;;;5010825;28;20080;-78
2020/12/20 05:48:22;;;;;;;19.85;12.80;;;5.80;99.90;;;;;;5010022;28;20045;-78
2020/12/20 05:51:07;;;;;;;17.83;11.77;;;5.80;99.90;;;;;;5010829;28;20145;-78
2020/12/20 05:53:34;;;;;;;21.35;12.82;;;5.80;99.90;;;;;;5012160;28;20030;-78
2020/12/20 05:56:04;;;;;;;17.98;12.50;;;5.80;99.90;;;;;;5012560;28;20034;-78
2020/12/20 05:58:32;;;;;;;23.52;14.27;;;5.80;99.90;;;;;;5012175;28;20030;-78
2020/12/20 06:00:59;;;;;;;20.55;13.13;;;5.80;99.90;;;;;;5012326;28;20053;-78
2020/12/20 06:03:25;;;;;;;19.85;13.10;;;5.80;99.90;;;;;;5011640;28;20042;-77
2020/12/20 06:05:52;;;;;;;19.13;13.50;;;5.80;99.90;;;;;;5011741;28;20053;-78
2020/12/20 06:08:21;;;;;;;19.15;13.70;;;5.80;99.90;;;;;;5012213;28;20050;-78
2020/12/20 06:10:49;;;;;;;20.58;13.18;;;5.80;99.90;;;;;;5011628;28;20029;-78
2020/12/20 06:13:19;;;;;;;20.25;13.63;;;5.80;99.90;;;;;;5011424;28;20038;-78
2020/12/20 06:15:51;;;;;;;19.05;12.98;;;5.80;99.90;;;;;;5012040;28;20038;-78
2020/12/20 06:18:29;;;;;;;17.77;12.95;;;5.80;99.90;;;;;;5012006;28;20037;-78
2020/12/20 06:20:57;;;;;;;16.95;12.48;;;5.80;99.90;;;;;;5010804;28;20054;-78
2020/12/20 06:23:29;;;;;;;20.10;13.13;;;5.80;99.90;;;;;;5012185;28;20037;-78
2020/12/20 06:25:57;;;;;;;21.08;13.38;;;5.80;99.90;;;;;;5011669;28;20487;-78
2020/12/20 06:28:31;;;;;;;17.23;12.50;;;5.80;99.90;;;;;;5011179;28;20077;-78
2020/12/20 06:30:58;;;;;;;17.95;12.32;;;5.90;99.90;;;;;;5012222;28;20041;-78
2020/12/20 06:33:48;;;;;;;18.33;12.70;;;5.90;99.90;;;;;;5011906;28;20030;-78
2020/12/20 06:36:16;;;;;;;18.42;13.43;;;5.80;99.90;;;;;;5012191;28;20041;-78
2020/12/20 06:38:54;;;;;;;19.02;13.65;;;5.80;99.90;;;;;;5011058;28;20411;-78
2020/12/20 06:41:37;;;;;;;19.23;12.93;;;5.80;99.90;;;;;;5011947;28;20049;-78
2020/12/20 06:44:13;;;;;;;22.83;13.45;;;5.80;99.90;;;;;;5011787;28;20046;-78
2020/12/20 06:46:40;;;;;;;19.55;13.95;;;5.80;99.90;;;;;;5011188;28;20038;-78
2020/12/20 06:49:32;;;;;;;20.30;13.90;;;5.80;99.90;;;;;;5011704;28;20033;-78
2020/12/20 06:52:17;;;;;;;22.95;14.95;;;5.80;99.90;;;;;;5011861;28;20045;-78
2020/12/20 06:55:09;;;;;;;20.27;14.13;;;5.80;99.90;;;;;;5011704;28;20483;-78
2020/12/20 06:57:56;;;;;;;23.02;13.88;;;5.80;99.90;;;;;;5011571;28;20436;-78
2020/12/20 07:00:42;;;;;;;19.30;13.65;;;5.80;99.90;;;;;;5014520;28;20026;-78
2020/12/20 07:03:10;;;;;;;21.73;14.82;;;5.80;99.90;;;;;;5015342;28;20414;-79
2020/12/20 07:05:44;;;;;;;30.10;20.60;;;5.80;99.90;;;;;;5014686;28;20040;-78
2020/12/20 07:08:22;;;;;;;79.88;41.20;;;5.90;99.90;;;;;;5014800;28;20030;-79
2020/12/20 07:10:55;;;;;;;64.15;32.50;;;5.80;99.90;;;;;;5014763;28;20026;-78
2020/12/20 07:13:41;;;;;;;45.47;25.50;;;5.90;99.90;;;;;;5014753;28;20037;-78
2020/12/20 07:16:09;;;;;;;40.80;23.50;;;5.90;99.90;;;;;;5015262;28;20061;-78
2020/12/20 07:18:50;;;;;;;36.70;23.20;;;5.90;99.90;;;;;;5014582;28;20025;-78
2020/12/20 07:21:19;;;;;;;36.67;22.23;;;5.90;99.90;;;;;;5014073;28;20380;-78
2020/12/20 07:23:54;;;;;;;30.58;18.10;;;5.90;99.90;;;;;;5014651;28;20041;-78
2020/12/20 07:26:20;;;;;;;25.13;17.45;;;5.90;99.90;;;;;;5015092;28;20041;-78
2020/12/20 07:28:47;;;;;;;30.60;19.10;;;5.90;99.90;;;;;;5014635;28;20474;-78
2020/12/20 07:31:16;;;;;;;26.17;17.13;;;5.90;99.90;;;;;;5014399;28;20045;-78
2020/12/20 07:33:46;;;;;;;26.25;16.70;;;5.90;99.90;;;;;;5014460;28;20029;-78
2020/12/20 07:36:13;;;;;;;17.63;11.50;;;5.90;99.90;;;;;;5015165;28;20041;-78
2020/12/20 07:38:39;;;;;;;34.35;18.88;;;5.90;99.90;;;;;;5014222;28;20034;-78
2020/12/20 07:41:09;;;;;;;55.20;28.35;;;5.90;99.90;;;;;;5014414;28;20026;-78
2020/12/20 07:43:36;;;;;;;152.73;64.07;;;5.90;99.90;;;;;;5014026;28;20475;-78
2020/12/20 07:46:06;;;;;;;81.78;40.22;;;5.90;99.90;;;;;;5014615;28;20041;-78
2020/12/20 07:48:33;;;;;;;54.20;28.83;;;5.90;99.90;;;;;;5014192;28;20041;-76
2020/12/20 07:51:10;;;;;;;40.92;22.55;;;5.90;99.90;;;;;;5013965;28;20050;-78
2020/12/20 07:53:44;;;;;;;28.20;18.23;;;5.90;99.90;;;;;;5014025;28;20034;-76
2020/12/20 07:56:10;;;;;;;25.20;16.27;;;6.00;99.90;;;;;;5013861;28;20411;-76
2020/12/20 07:58:37;;;;;;;25.30;17.65;;;5.90;99.90;;;;;;5012423;28;20045;-77
2020/12/20 08:01:07;;;;;;;26.05;18.35;;;5.90;99.90;;;;;;5014081;28;20034;-77
2020/12/20 08:03:33;;;;;;;26.33;18.38;;;5.90;99.90;;;;;;5013675;28;20041;-76
2020/12/20 08:06:04;;;;;;;28.25;19.52;;;5.90;99.90;;;;;;5014018;28;20044;-76
2020/12/20 08:08:31;;;;;;;29.17;17.65;;;5.90;99.90;;;;;;5014070;28;20057;-77
2020/12/20 08:11:01;;;;;;;31.17;18.27;;;6.00;99.90;;;;;;5013583;28;20490;-77
2020/12/20 08:13:27;;;;;;;40.13;26.83;;;5.90;99.90;;;;;;5013680;28;20502;-77
2020/12/20 08:15:53;;;;;;;29.00;20.70;;;6.00;99.90;;;;;;5013357;28;20045;-77
2020/12/20 08:18:20;;;;;;;27.67;17.92;;;6.00;99.90;;;;;;5013735;28;20022;-77
2020/12/20 08:20:47;;;;;;;31.98;22.90;;;6.00;99.90;;;;;;5013009;28;20073;-76
2020/12/20 08:23:16;;;;;;;29.60;22.13;;;6.00;99.90;;;;;;5012222;28;20486;-77
2020/12/20 08:25:43;;;;;;;30.27;20.63;;;6.00;99.90;;;;;;5013526;28;20030;-77
2020/12/20 08:28:10;;;;;;;42.08;27.92;;;6.00;99.90;;;;;;5012938;28;20048;-77
2020/12/20 08:30:37;;;;;;;42.22;28.38;;;6.10;99.90;;;;;;5013250;28;20364;-77
2020/12/20 08:33:04;;;;;;;29.70;21.17;;;6.10;99.90;;;;;;5013640;28;20042;-77
2020/12/20 08:35:30;;;;;;;30.73;19.98;;;6.10;99.90;;;;;;5014266;28;20379;-77
2020/12/20 08:37:59;;;;;;;25.25;16.50;;;6.10;99.90;;;;;;5013190;28;20455;-77
2020/12/20 08:40:31;;;;;;;27.27;18.80;;;6.20;99.90;;;;;;5013039;28;20034;-77
2020/12/20 08:42:59;;;;;;;28.15;18.20;;;6.10;99.90;;;;;;5013065;28;20046;-77
2020/12/20 08:45:26;;;;;;;46.75;26.83;;;6.20;99.90;;;;;;5012138;28;20475;-77
2020/12/20 08:48:00;;;;;;;41.67;24.55;;;6.20;99.90;;;;;;5011617;28;20483;-77
2020/12/20 08:50:27;;;;;;;30.45;19.75;;;6.30;99.90;;;;;;5013119;28;20038;-77
2020/12/20 08:53:02;;;;;;;31.17;19.80;;;6.30;99.90;;;;;;5012861;28;20033;-78
2020/12/20 08:55:28;;;;;;;36.30;22.15;;;6.30;99.90;;;;;;5013179;28;20034;-76
2020/12/20 08:58:10;;;;;;;30.17;20.17;;;6.30;99.90;;;;;;5012787;28;20037;-77
2020/12/20 09:00:36;;;;;;;32.67;20.50;;;6.30;99.90;;;;;;5012134;28;20042;-76
2020/12/20 09:03:05;;;;;;;37.80;22.95;;;6.30;99.90;;;;;;5013213;28;20033;-76
2020/12/20 09:05:35;;;;;;;31.00;21.55;;;6.40;99.90;;;;;;5013214;28;20381;-76
2020/12/20 09:08:04;;;;;;;128.55;61.95;;;6.40;99.90;;;;;;5011704;28;20485;-76
2020/12/20 09:10:32;;;;;;;43.03;24.55;;;6.40;99.90;;;;;;5013206;28;20038;-76
2020/12/20 09:13:03;;;;;;;86.07;42.15;;;6.50;99.90;;;;;;5013122;28;20472;-76
2020/12/20 09:15:29;;;;;;;75.05;37.75;;;6.50;99.90;;;;;;5023611;28;20021;-76
2020/12/20 09:17:58;;;;;;;73.72;37.60;;;6.50;99.90;;;;;;5013803;28;20490;-76
2020/12/20 09:20:27;;;;;;;55.10;30.00;;;6.60;99.90;;;;;;5021557;28;20464;-76
2020/12/20 09:23:01;;;;;;;33.80;20.35;;;6.60;99.90;;;;;;5012213;28;20049;-76
2020/12/20 09:25:36;;;;;;;24.52;16.70;;;6.70;99.90;;;;;;5012354;28;20033;-76
2020/12/20 09:28:06;;;;;;;42.65;22.75;;;6.70;99.90;;;;;;5012829;28;20041;-76
2020/12/20 09:30:54;;;;;;;111.30;49.25;;;6.80;99.90;;;;;;5012430;28;20044;-76
2020/12/20 09:33:23;;;;;;;155.30;61.78;;;7.00;99.90;;;;;;5012588;28;20042;-76
2020/12/20 09:35:55;;;;;;;45.28;25.42;;;7.10;99.90;;;;;;5012027;28;20045;-76
2020/12/20 09:38:23;;;;;;;25.05;17.13;;;7.10;99.90;;;;;;5011712;28;20403;-73
2020/12/20 09:41:02;;;;;;;42.83;25.92;;;7.30;99.90;;;;;;5012194;28;20045;-73
2020/12/20 09:43:29;;;;;;;41.15;25.05;;;7.40;99.90;;;;;;5012575;28;20490;-76
2020/12/20 09:45:57;;;;;;;183.50;97.15;;;7.50;99.90;;;;;;5013693;28;20038;-76
2020/12/20 09:48:23;;;;;;;66.35;41.47;;;7.50;99.90;;;;;;5012472;28;20063;-73
2020/12/20 09:50:49;;;;;;;67.75;42.03;;;7.50;99.90;;;;;;5011453;28;20049;-76
2020/12/20 09:53:16;;;;;;;24.92;17.40;;;7.60;99.90;;;;;;5012458;28;20038;-75
2020/12/20 09:55:42;;;;;;;21.95;15.18;;;7.60;99.90;;;;;;5011985;28;20037;-73
2020/12/20 09:58:10;;;;;;;23.27;13.95;;;7.60;99.90;;;;;;5011921;28;20475;-73
2020/12/20 10:00:37;;;;;;;20.40;12.70;;;7.60;99.90;;;;;;5011861;28;20033;-74
2020/12/20 10:03:03;;;;;;;20.17;13.38;;;7.60;99.90;;;;;;5012186;28;20038;-76
2020/12/20 10:05:30;;;;;;;18.90;13.07;;;7.60;99.90;;;;;;5016647;28;20028;-77
2020/12/20 10:07:56;;;;;;;18.60;12.50;;;7.50;99.90;;;;;;5020255;28;20467;-74
2020/12/20 10:10:22;;;;;;;19.42;13.85;;;7.50;99.90;;;;;;5012136;28;20042;-75
2020/12/20 10:12:49;;;;;;;18.08;12.50;;;7.60;99.90;;;;;;5011909;28;20041;-75
2020/12/20 10:15:15;;;;;;;20.13;13.93;;;7.70;99.90;;;;;;5012084;28;20041;-75
2020/12/20 10:17:41;;;;;;;50.83;32.08;;;7.90;99.90;;;;;;5011873;28;20038;-74
2020/12/20 10:20:07;;;;;;;16.58;12.40;;;8.00;99.90;;;;;;5011765;28;20497;-74
2020/12/20 10:22:34;;;;;;;15.82;12.55;;;8.10;99.90;;;;;;5011446;28;20053;-76
2020/12/20 10:25:00;;;;;;;20.67;13.18;;;8.00;99.90;;;;;;5011884;28;20060;-75
2020/12/20 10:27:26;;;;;;;17.70;12.20;;;8.10;99.90;;;;;;5014235;28;20045;-75
2020/12/20 10:29:53;;;;;;;19.02;12.88;;;8.20;99.90;;;;;;5011335;28;20052;-74
2020/12/20 10:32:19;;;;;;;56.42;30.10;;;8.40;99.90;;;;;;5011811;28;20025;-75
2020/12/20 10:34:45;;;;;;;40.13;21.65;;;8.50;99.90;;;;;;5013628;28;20037;-75
2020/12/20 10:37:11;;;;;;;25.80;17.02;;;8.50;99.90;;;;;;5015582;28;20521;-74
2020/12/20 10:39:38;;;;;;;58.47;34.13;;;8.40;99.90;;;;;;5014995;28;20042;-75
2020/12/20 10:42:04;;;;;;;36.53;22.23;;;8.40;99.90;;;;;;5015446;28;20371;-75
2020/12/20 10:44:30;;;;;;;22.60;16.27;;;8.30;99.90;;;;;;5015181;28;20030;-75
2020/12/20 10:46:56;;;;;;;25.52;16.08;;;8.30;99.90;;;;;;5014705;28;20050;-75
2020/12/20 10:49:23;;;;;;;33.75;20.42;;;8.30;99.90;;;;;;5015785;28;20041;-74
2020/12/20 10:51:53;;;;;;;56.58;34.90;;;8.30;99.90;;;;;;5014901;28;20038;-74
2020/12/20 10:54:21;;;;;;;26.05;17.45;;;8.30;99.90;;;;;;5015363;28;20026;-74
2020/12/20 10:56:48;;;;;;;18.13;12.68;;;8.20;99.90;;;;;;5014833;28;20038;-74
2020/12/20 10:59:15;;;;;;;40.58;26.52;;;8.20;99.90;;;;;;5014936;28;20033;-74
2020/12/20 11:01:42;;;;;;;22.35;17.00;;;8.20;99.90;;;;;;5014664;28;20037;-74
2020/12/20 11:04:08;;;;;;;20.48;14.52;;;8.20;99.90;;;;;;5015095;28;20030;-74
2020/12/20 11:06:35;;;;;;;38.90;26.50;;;8.30;99.90;;;;;;5017649;28;20068;-74
2020/12/20 11:09:01;;;;;;;25.30;16.83;;;8.40;99.90;;;;;;5022702;28;20038;-75
2020/12/20 11:11:29;;;;;;;43.13;26.80;;;8.20;99.90;;;;;;5026904;28;20026;-74
2020/12/20 11:13:56;;;;;;;19.65;15.00;;;8.10;99.90;;;;;;5017890;28;20391;-74
2020/12/20 11:16:22;;;;;;;23.50;15.98;;;8.10;99.90;;;;;;5024743;28;20048;-75
2020/12/20 11:18:49;;;;;;;76.68;52.25;;;8.00;99.90;;;;;;5014463;28;20026;-74
2020/12/20 11:21:16;;;;;;;29.23;21.52;;;8.10;99.90;;;;;;5014426;28;20495;-75
2020/12/20 11:23:43;;;;;;;24.67;17.67;;;8.00;99.90;;;;;;5015143;28;20494;-74
2020/12/20 11:26:21;;;;;;;36.92;25.85;;;8.00;99.90;;;;;;5027419;28;20042;-74
2020/12/20 11:28:50;;;;;;;28.80;20.77;;;8.00;99.90;;;;;;5014622;28;20038;-75
2020/12/20 11:31:21;;;;;;;61.15;38.72;;;8.00;99.90;;;;;;5014589;28;20045;-74
2020/12/20 11:33:49;;;;;;;30.17;19.58;;;8.00;99.90;;;;;;5016911;28;20470;-74
2020/12/20 11:36:20;;;;;;;23.90;16.83;;;7.90;99.90;;;;;;5019931;28;20029;-74
2020/12/20 11:38:47;;;;;;;23.70;15.07;;;7.80;99.90;;;;;;5014057;28;20490;-76
2020/12/20 11:41:14;;;;;;;21.50;14.82;;;7.70;99.90;;;;;;5014489;28;20034;-74
2020/12/20 11:43:41;;;;;;;28.95;20.15;;;7.70;99.90;;;;;;5018115;28;20033;-76
2020/12/20 11:46:10;;;;;;;24.48;17.40;;;7.80;99.90;;;;;;5022021;28;20042;-73
2020/12/20 11:48:37;;;;;;;24.33;16.45;;;7.90;99.90;;;;;;5015003;28;20053;-74
2020/12/20 11:51:03;;;;;;;58.95;39.10;;;8.10;99.90;;;;;;5013890;28;20046;-73
2020/12/20 11:53:30;;;;;;;18.88;14.52;;;8.20;99.90;;;;;;5014192;28;20377;-74
2020/12/20 11:55:56;;;;;;;18.85;14.40;;;8.20;99.90;;;;;;5013738;28;20374;-74
2020/12/20 11:58:23;;;;;;;17.27;12.73;;;8.20;99.90;;;;;;5014038;28;20026;-74
2020/12/20 12:00:50;;;;;;;19.10;14.48;;;8.20;99.90;;;;;;5013623;28;20042;-76
2020/12/20 12:03:16;;;;;;;20.58;15.10;;;8.30;99.90;;;;;;5013718;28;20034;-73
2020/12/20 12:05:44;;;;;;;17.00;12.38;;;8.30;99.90;;;;;;5013801;28;20034;-74
2020/12/20 12:08:11;;;;;;;19.98;15.35;;;8.20;99.90;;;;;;5013960;28;20037;-74
2020/12/20 12:10:43;;;;;;;18.67;14.95;;;8.20;99.90;;;;;;5013425;28;20045;-75
2020/12/20 12:13:09;;;;;;;19.50;12.93;;;8.30;99.90;;;;;;5013843;28;20071;-74
2020/12/20 12:15:37;;;;;;;16.95;12.88;;;8.40;99.90;;;;;;5013762;28;20033;-73
2020/12/20 12:18:04;;;;;;;39.67;29.48;;;8.40;99.90;;;;;;5013215;28;20096;-74
2020/12/20 12:20:31;;;;;;;35.08;22.67;;;8.50;99.90;;;;;;5012303;28;20058;-74
2020/12/20 12:22:57;;;;;;;21.20;14.55;;;8.40;99.90;;;;;;5013214;28;20033;-74
2020/12/20 12:25:28;;;;;;;28.95;19.00;;;8.40;99.90;;;;;;5014509;28;20049;-74
2020/12/20 12:27:56;;;;;;;22.83;17.13;;;8.40;99.90;;;;;;5020376;28;20238;-74
2020/12/20 12:30:22;;;;;;;18.75;14.75;;;8.40;99.90;;;;;;5024200;28;20045;-74
2020/12/20 12:32:52;;;;;;;23.35;18.17;;;8.50;99.90;;;;;;5027869;28;20053;-74
2020/12/20 12:35:23;;;;;;;22.77;16.15;;;8.60;99.90;;;;;;5042264;28;20029;-74
2020/12/20 12:37:53;;;;;;;14.50;10.30;;;8.50;99.90;;;;;;5039998;28;20053;-74
2020/12/20 12:40:19;;;;;;;43.42;28.40;;;8.40;99.90;;;;;;5040217;28;20025;-74
2020/12/20 12:42:46;;;;;;;20.60;14.55;;;8.40;99.90;;;;;;5026960;28;20041;-74
2020/12/20 12:45:14;;;;;;;17.40;12.20;;;8.30;99.90;;;;;;5013455;28;20404;-74
2020/12/20 12:47:41;;;;;;;19.75;12.25;;;8.30;99.90;;;;;;5012529;28;20042;-74
2020/12/20 12:50:07;;;;;;;30.55;20.45;;;8.20;99.90;;;;;;5013171;28;20042;-74
2020/12/20 12:52:34;;;;;;;21.08;14.43;;;8.20;99.90;;;;;;5012267;28;20042;-73
2020/12/20 12:55:01;;;;;;;19.48;13.77;;;8.10;99.90;;;;;;5013002;28;20455;-75
2020/12/20 12:57:27;;;;;;;21.17;14.32;;;8.10;99.90;;;;;;5012802;28;20391;-75